sensor_id;sensor_type;location;lat;lon;timestamp;temperature;humidity
59007;DHT22;44792;52.760;6.726;2023-02-23T00:01:18;8.60;99.90
59007;DHT22;44792;52.760;6.726;2023-02-23T00:03:45;8.50;99.90
59007;DHT22;44792;52.760;6.726;2023-02-23T00:06:11;8.50;99.90
59007;DHT22;44792;52.760;6.726;2023-02-23T00:08:38;8.50;99.90
59007;DHT22;44792;52.760;6.726;2023-02-23T00:11:05;8.50;99.90
59007;DHT22;44792;52.760;6.726;2023-02-23T00:13:32;8.50;99.90
59007;DHT22;44792;52.760;6.726;2023-02-23T00:16:10;8.50;99.90
59007;DHT22;44792;52.760;6.726;2023-02-23T00:18:43;8.50;99.90
59007;DHT22;44792;52.760;6.726;2023-02-23T00:21:14;8.50;99.90
59007;DHT22;44792;52.760;6.726;2023-02-23T00:24:02;8.50;99.90
59007;DHT22;44792;52.760;6.726;2023-02-23T00:26:30;8.40;99.90
59007;DHT22;44792;52.760;6.726;2023-02-23T00:29:00;8.40;99.90
59007;DHT22;44792;52.760;6.726;2023-02-23T00:31:26;8.40;99.90
59007;DHT22;44792;52.760;6.726;2023-02-23T00:33:54;8.40;99.90
59007;DHT22;44792;52.760;6.726;2023-02-23T00:36:26;8.40;99.90
59007;DHT22;44792;52.760;6.726;2023-02-23T00:38:57;8.40;99.90
59007;DHT22;44792;52.760;6.726;2023-02-23T00:41:23;8.40;99.90
59007;DHT22;44792;52.760;6.726;2023-02-23T00:43:57;8.40;99.90
59007;DHT22;44792;52.760;6.726;2023-02-23T00:46:25;8.40;99.90
59007;DHT22;44792;52.760;6.726;2023-02-23T00:48:52;8.40;99.90
59007;DHT22;44792;52.760;6.726;2023-02-23T00:51:20;8.40;99.90
59007;DHT22;44792;52.760;6.726;2023-02-23T00:53:46;8.30;99.90
59007;DHT22;44792;52.760;6.726;2023-02-23T00:56:13;8.40;99.90
59007;DHT22;44792;52.760;6.726;2023-02-23T00:58:39;8.40;99.90
59007;DHT22;44792;52.760;6.726;2023-02-23T01:01:09;8.40;99.90
59007;DHT22;44792;52.760;6.726;2023-02-23T01:03:37;8.50;99.90
59007;DHT22;44792;52.760;6.726;2023-02-23T01:06:04;8.40;99.90
59007;DHT22;44792;52.760;6.726;2023-02-23T01:08:31;8.40;99.90
59007;DHT22;44792;52.760;6.726;2023-02-23T01:10:57;8.40;99.90
59007;DHT22;44792;52.760;6.726;2023-02-23T01:13:23;8.40;99.90
59007;DHT22;44792;52.760;6.726;2023-02-23T01:15:49;8.40;99.90
59007;DHT22;44792;52.760;6.726;2023-02-23T01:18:17;8.40;99.90
59007;DHT22;44792;52.760;6.726;2023-02-23T01:20:44;8.40;99.90
59007;DHT22;44792;52.760;6.726;2023-02-23T01:23:12;8.40;99.90
59007;DHT22;44792;52.760;6.726;2023-02-23T01:25:39;8.40;99.90
59007;DHT22;44792;52.760;6.726;2023-02-23T01:28:05;8.30;99.90
59007;DHT22;44792;52.760;6.726;2023-02-23T01:30:31;8.40;99.90
59007;DHT22;44792;52.760;6.726;2023-02-23T01:32:56;8.40;99.90
59007;DHT22;44792;52.760;6.726;2023-02-23T01:35:22;8.40;99.90
59007;DHT22;44792;52.760;6.726;2023-02-23T01:37:48;8.40;99.90
59007;DHT22;44792;52.760;6.726;2023-02-23T01:40:19;8.40;99.90
59007;DHT22;44792;52.760;6.726;2023-02-23T01:43:14;8.40;99.90
59007;DHT22;44792;52.760;6.726;2023-02-23T01:45:42;8.40;99.90
59007;DHT22;44792;52.760;6.726;2023-02-23T01:48:22;8.40;99.90
59007;DHT22;44792;52.760;6.726;2023-02-23T01:50:59;8.40;99.90
59007;DHT22;44792;52.760;6.726;2023-02-23T01:53:30;8.50;99.90
59007;DHT22;44792;52.760;6.726;2023-02-23T01:56:01;8.40;99.90
59007;DHT22;44792;52.760;6.726;2023-02-23T01:58:29;8.40;99.90
59007;DHT22;44792;52.760;6.726;2023-02-23T02:00:57;8.40;99.90
59007;DHT22;44792;52.760;6.726;2023-02-23T02:03:34;8.40;99.90
59007;DHT22;44792;52.760;6.726;2023-02-23T02:06:02;8.50;99.90
59007;DHT22;44792;52.760;6.726;2023-02-23T02:08:30;8.40;99.90
59007;DHT22;44792;52.760;6.726;2023-02-23T02:10:56;8.40;99.90
59007;DHT22;44792;52.760;6.726;2023-02-23T02:13:26;8.40;99.90
59007;DHT22;44792;52.760;6.726;2023-02-23T02:18:44;8.40;99.90
59007;DHT22;44792;52.760;6.726;2023-02-23T02:21:22;8.50;99.90
59007;DHT22;44792;52.760;6.726;2023-02-23T02:32:30;8.40;99.90
59007;DHT22;44792;52.760;6.726;2023-02-23T02:35:31;8.40;99.90
59007;DHT22;44792;52.760;6.726;2023-02-23T02:43:37;8.40;99.90
59007;DHT22;44792;52.760;6.726;2023-02-23T02:46:17;8.40;99.90
59007;DHT22;44792;52.760;6.726;2023-02-23T02:54:54;8.40;99.90
59007;DHT22;44792;52.760;6.726;2023-02-23T02:57:24;8.40;99.90
59007;DHT22;44792;52.760;6.726;2023-02-23T02:59:51;8.40;99.90
59007;DHT22;44792;52.760;6.726;2023-02-23T03:02:37;8.40;99.90
59007;DHT22;44792;52.760;6.726;2023-02-23T03:05:26;8.40;99.90
59007;DHT22;44792;52.760;6.726;2023-02-23T03:11:12;8.40;99.90
59007;DHT22;44792;52.760;6.726;2023-02-23T03:14:15;8.40;99.90
59007;DHT22;44792;52.760;6.726;2023-02-23T03:17:31;8.40;99.90
59007;DHT22;44792;52.760;6.726;2023-02-23T03:26:26;8.30;99.90
59007;DHT22;44792;52.760;6.726;2023-02-23T03:29:23;8.30;99.90
59007;DHT22;44792;52.760;6.726;2023-02-23T03:32:24;8.30;99.90
59007;DHT22;44792;52.760;6.726;2023-02-23T03:35:29;8.40;99.90
59007;DHT22;44792;52.760;6.726;2023-02-23T03:41:06;8.30;99.90
59007;DHT22;44792;52.760;6.726;2023-02-23T03:43:55;8.30;99.90
59007;DHT22;44792;52.760;6.726;2023-02-23T03:46:41;8.30;99.90
59007;DHT22;44792;52.760;6.726;2023-02-23T03:49:31;8.40;99.90
59007;DHT22;44792;52.760;6.726;2023-02-23T03:52:20;8.30;99.90
59007;DHT22;44792;52.760;6.726;2023-02-23T03:55:20;8.30;99.90
59007;DHT22;44792;52.760;6.726;2023-02-23T03:58:11;8.30;99.90
59007;DHT22;44792;52.760;6.726;2023-02-23T04:00:58;8.40;99.90
59007;DHT22;44792;52.760;6.726;2023-02-23T04:03:44;8.40;99.90
59007;DHT22;44792;52.760;6.726;2023-02-23T04:06:33;8.30;99.90
59007;DHT22;44792;52.760;6.726;2023-02-23T04:09:19;8.40;99.90
59007;DHT22;44792;52.760;6.726;2023-02-23T04:17:56;8.30;99.90
59007;DHT22;44792;52.760;6.726;2023-02-23T04:20:23;8.30;99.90
59007;DHT22;44792;52.760;6.726;2023-02-23T04:22:49;8.30;99.90
59007;DHT22;44792;52.760;6.726;2023-02-23T04:25:15;8.30;99.90
59007;DHT22;44792;52.760;6.726;2023-02-23T04:27:42;8.30;99.90
59007;DHT22;44792;52.760;6.726;2023-02-23T04:30:08;8.30;99.90
59007;DHT22;44792;52.760;6.726;2023-02-23T04:32:36;8.30;99.90
59007;DHT22;44792;52.760;6.726;2023-02-23T04:35:02;8.30;99.90
59007;DHT22;44792;52.760;6.726;2023-02-23T04:37:28;8.30;99.90
59007;DHT22;44792;52.760;6.726;2023-02-23T04:39:53;8.30;99.90
59007;DHT22;44792;52.760;6.726;2023-02-23T04:42:19;8.30;99.90
59007;DHT22;44792;52.760;6.726;2023-02-23T04:44:45;8.30;99.90
59007;DHT22;44792;52.760;6.726;2023-02-23T04:47:12;8.30;99.90
59007;DHT22;44792;52.760;6.726;2023-02-23T04:49:38;8.30;99.90
59007;DHT22;44792;52.760;6.726;2023-02-23T04:52:04;8.30;99.90
59007;DHT22;44792;52.760;6.726;2023-02-23T04:54:29;8.30;99.90
59007;DHT22;44792;52.760;6.726;2023-02-23T04:56:55;8.30;99.90
59007;DHT22;44792;52.760;6.726;2023-02-23T04:59:20;8.30;99.90
59007;DHT22;44792;52.760;6.726;2023-02-23T05:01:46;8.30;99.90
59007;DHT22;44792;52.760;6.726;2023-02-23T05:04:11;8.30;99.90
59007;DHT22;44792;52.760;6.726;2023-02-23T05:06:37;8.30;99.90
59007;DHT22;44792;52.760;6.726;2023-02-23T05:09:03;8.30;99.90
59007;DHT22;44792;52.760;6.726;2023-02-23T05:11:31;8.30;99.90
59007;DHT22;44792;52.760;6.726;2023-02-23T05:13:57;8.30;99.90
59007;DHT22;44792;52.760;6.726;2023-02-23T05:16:23;8.30;99.90
59007;DHT22;44792;52.760;6.726;2023-02-23T05:18:48;8.30;99.90
59007;DHT22;44792;52.760;6.726;2023-02-23T05:21:14;8.30;99.90
59007;DHT22;44792;52.760;6.726;2023-02-23T05:23:40;8.30;99.90
59007;DHT22;44792;52.760;6.726;2023-02-23T05:26:09;8.30;99.90
59007;DHT22;44792;52.760;6.726;2023-02-23T05:28:38;8.20;99.90
59007;DHT22;44792;52.760;6.726;2023-02-23T05:31:04;8.30;99.90
59007;DHT22;44792;52.760;6.726;2023-02-23T05:33:31;8.30;99.90
59007;DHT22;44792;52.760;6.726;2023-02-23T05:35:57;8.30;99.90
59007;DHT22;44792;52.760;6.726;2023-02-23T05:38:23;8.30;99.90
59007;DHT22;44792;52.760;6.726;2023-02-23T05:40:49;8.30;99.90
59007;DHT22;44792;52.760;6.726;2023-02-23T05:43:15;8.30;99.90
59007;DHT22;44792;52.760;6.726;2023-02-23T05:45:41;8.20;99.90
59007;DHT22;44792;52.760;6.726;2023-02-23T05:48:07;8.20;99.90
59007;DHT22;44792;52.760;6.726;2023-02-23T05:50:33;8.30;99.90
59007;DHT22;44792;52.760;6.726;2023-02-23T05:52:59;8.30;99.90
59007;DHT22;44792;52.760;6.726;2023-02-23T05:55:24;8.30;99.90
59007;DHT22;44792;52.760;6.726;2023-02-23T05:57:50;8.30;99.90
59007;DHT22;44792;52.760;6.726;2023-02-23T06:00:16;8.20;99.90
59007;DHT22;44792;52.760;6.726;2023-02-23T06:02:42;8.20;99.90
59007;DHT22;44792;52.760;6.726;2023-02-23T06:05:10;8.20;99.90
59007;DHT22;44792;52.760;6.726;2023-02-23T06:07:36;8.20;99.90
59007;DHT22;44792;52.760;6.726;2023-02-23T06:10:03;8.20;99.90
59007;DHT22;44792;52.760;6.726;2023-02-23T06:12:29;8.20;99.90
59007;DHT22;44792;52.760;6.726;2023-02-23T06:14:54;8.30;99.90
59007;DHT22;44792;52.760;6.726;2023-02-23T06:17:21;8.20;99.90
59007;DHT22;44792;52.760;6.726;2023-02-23T06:19:47;8.20;99.90
59007;DHT22;44792;52.760;6.726;2023-02-23T06:22:13;8.20;99.90
59007;DHT22;44792;52.760;6.726;2023-02-23T06:24:38;8.20;99.90
59007;DHT22;44792;52.760;6.726;2023-02-23T06:27:04;8.20;99.90
59007;DHT22;44792;52.760;6.726;2023-02-23T06:29:29;8.20;99.90
59007;DHT22;44792;52.760;6.726;2023-02-23T06:31:55;8.20;99.90
59007;DHT22;44792;52.760;6.726;2023-02-23T06:34:20;8.20;99.90
59007;DHT22;44792;52.760;6.726;2023-02-23T06:36:46;8.20;99.90
59007;DHT22;44792;52.760;6.726;2023-02-23T06:39:12;8.10;99.90
59007;DHT22;44792;52.760;6.726;2023-02-23T06:41:37;8.20;99.90
59007;DHT22;44792;52.760;6.726;2023-02-23T06:44:03;8.20;99.90
59007;DHT22;44792;52.760;6.726;2023-02-23T06:46:29;8.20;99.90
59007;DHT22;44792;52.760;6.726;2023-02-23T06:48:55;8.20;99.90
59007;DHT22;44792;52.760;6.726;2023-02-23T06:51:22;8.20;99.90
59007;DHT22;44792;52.760;6.726;2023-02-23T06:53:47;8.20;99.90
59007;DHT22;44792;52.760;6.726;2023-02-23T06:56:13;8.20;99.90
59007;DHT22;44792;52.760;6.726;2023-02-23T06:58:41;8.20;99.90
59007;DHT22;44792;52.760;6.726;2023-02-23T07:01:08;8.20;99.90
59007;DHT22;44792;52.760;6.726;2023-02-23T07:03:34;8.20;99.90
59007;DHT22;44792;52.760;6.726;2023-02-23T07:06:00;8.20;99.90
59007;DHT22;44792;52.760;6.726;2023-02-23T07:08:26;8.10;99.90
59007;DHT22;44792;52.760;6.726;2023-02-23T07:10:51;8.20;99.90
59007;DHT22;44792;52.760;6.726;2023-02-23T07:13:17;8.20;99.90
59007;DHT22;44792;52.760;6.726;2023-02-23T07:15:44;8.20;99.90
59007;DHT22;44792;52.760;6.726;2023-02-23T07:18:10;8.20;99.90
59007;DHT22;44792;52.760;6.726;2023-02-23T07:20:36;8.20;99.90
59007;DHT22;44792;52.760;6.726;2023-02-23T07:23:01;8.20;99.90
59007;DHT22;44792;52.760;6.726;2023-02-23T07:25:27;8.10;99.90
59007;DHT22;44792;52.760;6.726;2023-02-23T07:27:53;8.20;99.90
59007;DHT22;44792;52.760;6.726;2023-02-23T07:30:19;8.20;99.90
59007;DHT22;44792;52.760;6.726;2023-02-23T07:32:52;8.20;99.90
59007;DHT22;44792;52.760;6.726;2023-02-23T07:35:18;8.20;99.90
59007;DHT22;44792;52.760;6.726;2023-02-23T07:37:44;8.20;99.90
59007;DHT22;44792;52.760;6.726;2023-02-23T07:40:10;8.20;99.90
59007;DHT22;44792;52.760;6.726;2023-02-23T07:42:36;8.20;99.90
59007;DHT22;44792;52.760;6.726;2023-02-23T07:45:03;8.20;99.90
59007;DHT22;44792;52.760;6.726;2023-02-23T07:47:29;8.20;99.90
59007;DHT22;44792;52.760;6.726;2023-02-23T07:49:59;8.10;99.90
59007;DHT22;44792;52.760;6.726;2023-02-23T07:52:27;8.20;99.90
59007;DHT22;44792;52.760;6.726;2023-02-23T07:54:52;8.20;99.90
59007;DHT22;44792;52.760;6.726;2023-02-23T07:57:18;8.20;99.90
59007;DHT22;44792;52.760;6.726;2023-02-23T07:59:48;8.20;99.90
59007;DHT22;44792;52.760;6.726;2023-02-23T08:02:14;8.20;99.90
59007;DHT22;44792;52.760;6.726;2023-02-23T08:04:39;8.20;99.90
59007;DHT22;44792;52.760;6.726;2023-02-23T08:07:08;8.20;99.90
59007;DHT22;44792;52.760;6.726;2023-02-23T08:09:33;8.20;99.90
59007;DHT22;44792;52.760;6.726;2023-02-23T08:12:00;8.20;99.90
59007;DHT22;44792;52.760;6.726;2023-02-23T08:14:26;8.20;99.90
59007;DHT22;44792;52.760;6.726;2023-02-23T08:16:52;8.20;99.90
59007;DHT22;44792;52.760;6.726;2023-02-23T08:19:18;8.20;99.90
59007;DHT22;44792;52.760;6.726;2023-02-23T08:21:47;8.20;99.90
59007;DHT22;44792;52.760;6.726;2023-02-23T08:24:14;8.20;99.90
59007;DHT22;44792;52.760;6.726;2023-02-23T08:26:40;8.20;99.90
59007;DHT22;44792;52.760;6.726;2023-02-23T08:29:06;8.20;99.90
59007;DHT22;44792;52.760;6.726;2023-02-23T08:31:32;8.20;99.90
59007;DHT22;44792;52.760;6.726;2023-02-23T08:33:57;8.20;99.90
59007;DHT22;44792;52.760;6.726;2023-02-23T08:36:23;8.20;99.90
59007;DHT22;44792;52.760;6.726;2023-02-23T08:38:49;8.20;99.90
59007;DHT22;44792;52.760;6.726;2023-02-23T08:41:15;8.20;99.90
59007;DHT22;44792;52.760;6.726;2023-02-23T08:43:41;8.20;99.90
59007;DHT22;44792;52.760;6.726;2023-02-23T08:46:07;8.20;99.90
59007;DHT22;44792;52.760;6.726;2023-02-23T08:48:33;8.20;99.90
59007;DHT22;44792;52.760;6.726;2023-02-23T08:50:59;8.20;99.90
59007;DHT22;44792;52.760;6.726;2023-02-23T08:53:26;8.20;99.90
59007;DHT22;44792;52.760;6.726;2023-02-23T08:55:58;8.20;99.90
59007;DHT22;44792;52.760;6.726;2023-02-23T08:58:25;8.20;99.90
59007;DHT22;44792;52.760;6.726;2023-02-23T09:00:51;8.20;99.90
59007;DHT22;44792;52.760;6.726;2023-02-23T09:03:18;8.30;99.90
59007;DHT22;44792;52.760;6.726;2023-02-23T09:05:44;8.20;99.90
59007;DHT22;44792;52.760;6.726;2023-02-23T09:08:11;8.20;99.90
59007;DHT22;44792;52.760;6.726;2023-02-23T09:10:37;8.20;99.90
59007;DHT22;44792;52.760;6.726;2023-02-23T09:13:03;8.20;99.90
59007;DHT22;44792;52.760;6.726;2023-02-23T09:15:28;8.30;99.90
59007;DHT22;44792;52.760;6.726;2023-02-23T09:17:59;8.30;99.90
59007;DHT22;44792;52.760;6.726;2023-02-23T09:20:25;8.30;99.90
59007;DHT22;44792;52.760;6.726;2023-02-23T09:22:51;8.20;99.90
59007;DHT22;44792;52.760;6.726;2023-02-23T09:25:18;8.20;99.90
59007;DHT22;44792;52.760;6.726;2023-02-23T09:27:54;8.30;99.90
59007;DHT22;44792;52.760;6.726;2023-02-23T09:30:21;8.30;99.90
59007;DHT22;44792;52.760;6.726;2023-02-23T09:32:48;8.30;99.90
59007;DHT22;44792;52.760;6.726;2023-02-23T09:35:15;8.30;99.90
59007;DHT22;44792;52.760;6.726;2023-02-23T09:37:50;8.30;99.90
59007;DHT22;44792;52.760;6.726;2023-02-23T09:40:33;8.30;99.90
59007;DHT22;44792;52.760;6.726;2023-02-23T09:46:27;8.30;99.90
59007;DHT22;44792;52.760;6.726;2023-02-23T09:48:59;8.30;99.90
59007;DHT22;44792;52.760;6.726;2023-02-23T09:51:26;8.30;99.90
59007;DHT22;44792;52.760;6.726;2023-02-23T09:53:56;8.30;99.90
59007;DHT22;44792;52.760;6.726;2023-02-23T09:56:38;8.30;99.90
59007;DHT22;44792;52.760;6.726;2023-02-23T09:59:09;8.40;99.90
59007;DHT22;44792;52.760;6.726;2023-02-23T10:06:42;8.50;99.90
59007;DHT22;44792;52.760;6.726;2023-02-23T10:14:59;8.50;99.90
59007;DHT22;44792;52.760;6.726;2023-02-23T10:17:43;8.60;99.90
59007;DHT22;44792;52.760;6.726;2023-02-23T10:21:32;8.60;99.90
59007;DHT22;44792;52.760;6.726;2023-02-23T10:23:35;8.60;99.90
59007;DHT22;44792;52.760;6.726;2023-02-23T10:26:01;8.60;99.90
59007;DHT22;44792;52.760;6.726;2023-02-23T10:28:33;8.60;99.90
59007;DHT22;44792;52.760;6.726;2023-02-23T10:30:59;8.60;99.90
59007;DHT22;44792;52.760;6.726;2023-02-23T10:33:29;8.70;99.90
59007;DHT22;44792;52.760;6.726;2023-02-23T10:36:08;8.70;99.90
59007;DHT22;44792;52.760;6.726;2023-02-23T10:38:36;8.80;99.90
59007;DHT22;44792;52.760;6.726;2023-02-23T10:41:02;8.70;99.90
59007;DHT22;44792;52.760;6.726;2023-02-23T10:43:28;8.70;99.90
59007;DHT22;44792;52.760;6.726;2023-02-23T10:45:54;8.70;99.90
59007;DHT22;44792;52.760;6.726;2023-02-23T10:48:27;8.80;99.90
59007;DHT22;44792;52.760;6.726;2023-02-23T10:50:56;8.80;99.90
59007;DHT22;44792;52.760;6.726;2023-02-23T10:53:32;8.80;99.90
59007;DHT22;44792;52.760;6.726;2023-02-23T10:56:11;8.70;99.90
59007;DHT22;44792;52.760;6.726;2023-02-23T10:58:52;8.80;99.90
59007;DHT22;44792;52.760;6.726;2023-02-23T11:01:42;8.80;99.90
59007;DHT22;44792;52.760;6.726;2023-02-23T11:04:24;8.80;99.90
59007;DHT22;44792;52.760;6.726;2023-02-23T11:06:50;8.70;99.90
59007;DHT22;44792;52.760;6.726;2023-02-23T11:09:31;8.80;99.90
59007;DHT22;44792;52.760;6.726;2023-02-23T11:12:23;9.00;99.90
59007;DHT22;44792;52.760;6.726;2023-02-23T11:14:52;9.10;99.90
59007;DHT22;44792;52.760;6.726;2023-02-23T11:17:33;9.10;99.90
59007;DHT22;44792;52.760;6.726;2023-02-23T11:20:40;9.20;99.90
59007;DHT22;44792;52.760;6.726;2023-02-23T11:23:27;9.20;99.90
59007;DHT22;44792;52.760;6.726;2023-02-23T11:26:02;9.20;99.90
59007;DHT22;44792;52.760;6.726;2023-02-23T11:28:33;9.30;99.90
59007;DHT22;44792;52.760;6.726;2023-02-23T11:31:07;9.30;99.90
59007;DHT22;44792;52.760;6.726;2023-02-23T11:33:38;9.30;99.90
59007;DHT22;44792;52.760;6.726;2023-02-23T11:36:36;9.30;99.90
59007;DHT22;44792;52.760;6.726;2023-02-23T11:41:33;9.30;99.90
59007;DHT22;44792;52.760;6.726;2023-02-23T11:44:00;9.30;99.90
59007;DHT22;44792;52.760;6.726;2023-02-23T11:46:28;9.40;99.90
59007;DHT22;44792;52.760;6.726;2023-02-23T11:49:08;9.40;99.90
59007;DHT22;44792;52.760;6.726;2023-02-23T11:51:40;9.40;99.90
59007;DHT22;44792;52.760;6.726;2023-02-23T11:54:24;9.40;99.90
59007;DHT22;44792;52.760;6.726;2023-02-23T11:56:51;9.40;99.90
59007;DHT22;44792;52.760;6.726;2023-02-23T11:59:27;9.40;99.90
59007;DHT22;44792;52.760;6.726;2023-02-23T12:02:00;9.40;99.90
59007;DHT22;44792;52.760;6.726;2023-02-23T12:04:36;9.40;99.90
59007;DHT22;44792;52.760;6.726;2023-02-23T12:07:26;9.50;99.90
59007;DHT22;44792;52.760;6.726;2023-02-23T12:10:18;9.50;99.90
59007;DHT22;44792;52.760;6.726;2023-02-23T12:21:13;9.50;99.90
59007;DHT22;44792;52.760;6.726;2023-02-23T12:23:41;9.50;99.90
59007;DHT22;44792;52.760;6.726;2023-02-23T12:26:15;9.50;99.90
59007;DHT22;44792;52.760;6.726;2023-02-23T12:29:02;9.50;99.90
59007;DHT22;44792;52.760;6.726;2023-02-23T12:31:48;9.60;99.90
59007;DHT22;44792;52.760;6.726;2023-02-23T12:36:54;9.70;99.90
59007;DHT22;44792;52.760;6.726;2023-02-23T12:39:31;9.60;99.90
59007;DHT22;44792;52.760;6.726;2023-02-23T12:42:17;9.60;99.90
59007;DHT22;44792;52.760;6.726;2023-02-23T12:44:57;9.70;99.90
59007;DHT22;44792;52.760;6.726;2023-02-23T12:47:39;9.60;99.90
59007;DHT22;44792;52.760;6.726;2023-02-23T12:50:29;9.80;99.90
59007;DHT22;44792;52.760;6.726;2023-02-23T12:59:01;9.80;99.90
59007;DHT22;44792;52.760;6.726;2023-02-23T13:01:54;9.70;99.90
59007;DHT22;44792;52.760;6.726;2023-02-23T13:07:44;9.70;99.90
59007;DHT22;44792;52.760;6.726;2023-02-23T13:10:39;9.70;99.90
59007;DHT22;44792;52.760;6.726;2023-02-23T13:16:06;9.60;99.90
59007;DHT22;44792;52.760;6.726;2023-02-23T13:21:29;9.60;99.90
59007;DHT22;44792;52.760;6.726;2023-02-23T13:24:06;9.70;99.90
59007;DHT22;44792;52.760;6.726;2023-02-23T13:26:45;9.60;99.90
59007;DHT22;44792;52.760;6.726;2023-02-23T13:32:11;9.70;99.90
59007;DHT22;44792;52.760;6.726;2023-02-23T13:34:53;9.70;99.90
59007;DHT22;44792;52.760;6.726;2023-02-23T13:37:27;9.70;99.90
59007;DHT22;44792;52.760;6.726;2023-02-23T13:40:05;9.70;99.90
59007;DHT22;44792;52.760;6.726;2023-02-23T13:47:56;9.80;99.90
59007;DHT22;44792;52.760;6.726;2023-02-23T13:50:39;9.90;99.90
59007;DHT22;44792;52.760;6.726;2023-02-23T13:53:27;9.80;99.90
59007;DHT22;44792;52.760;6.726;2023-02-23T13:55:59;9.80;99.90
59007;DHT22;44792;52.760;6.726;2023-02-23T13:58:29;9.80;99.90
59007;DHT22;44792;52.760;6.726;2023-02-23T14:01:10;9.70;99.90
59007;DHT22;44792;52.760;6.726;2023-02-23T14:03:53;9.70;99.90
59007;DHT22;44792;52.760;6.726;2023-02-23T14:06:22;9.70;99.90
59007;DHT22;44792;52.760;6.726;2023-02-23T14:08:59;9.70;99.90
59007;DHT22;44792;52.760;6.726;2023-02-23T14:11:45;9.60;99.90
59007;DHT22;44792;52.760;6.726;2023-02-23T14:22:35;9.50;99.90
59007;DHT22;44792;52.760;6.726;2023-02-23T14:31:01;9.50;99.90
59007;DHT22;44792;52.760;6.726;2023-02-23T14:39:00;9.50;99.90
59007;DHT22;44792;52.760;6.726;2023-02-23T14:41:54;9.50;99.90
59007;DHT22;44792;52.760;6.726;2023-02-23T14:44:40;9.50;99.90
59007;DHT22;44792;52.760;6.726;2023-02-23T14:47:20;9.50;99.90
59007;DHT22;44792;52.760;6.726;2023-02-23T14:49:58;9.50;99.90
59007;DHT22;44792;52.760;6.726;2023-02-23T14:52:29;9.50;99.90
59007;DHT22;44792;52.760;6.726;2023-02-23T14:55:15;9.50;99.90
59007;DHT22;44792;52.760;6.726;2023-02-23T14:57:42;9.50;99.90
59007;DHT22;44792;52.760;6.726;2023-02-23T15:03:05;9.40;99.90
59007;DHT22;44792;52.760;6.726;2023-02-23T15:05:36;9.40;99.90
59007;DHT22;44792;52.760;6.726;2023-02-23T15:08:07;9.40;99.90
59007;DHT22;44792;52.760;6.726;2023-02-23T15:10:40;9.10;99.90
59007;DHT22;44792;52.760;6.726;2023-02-23T15:13:25;9.00;99.90
59007;DHT22;44792;52.760;6.726;2023-02-23T15:15:51;8.80;99.90
59007;DHT22;44792;52.760;6.726;2023-02-23T15:18:21;8.70;99.90
59007;DHT22;44792;52.760;6.726;2023-02-23T15:20:49;8.50;99.90
59007;DHT22;44792;52.760;6.726;2023-02-23T15:23:17;8.40;99.90
59007;DHT22;44792;52.760;6.726;2023-02-23T15:25:43;8.30;99.90
59007;DHT22;44792;52.760;6.726;2023-02-23T15:30:51;8.00;99.90
59007;DHT22;44792;52.760;6.726;2023-02-23T15:33:18;7.90;99.90
59007;DHT22;44792;52.760;6.726;2023-02-23T15:36:15;7.80;99.90
59007;DHT22;44792;52.760;6.726;2023-02-23T15:38:46;7.80;99.90
59007;DHT22;44792;52.760;6.726;2023-02-23T15:41:33;7.70;99.90
59007;DHT22;44792;52.760;6.726;2023-02-23T15:46:35;7.60;99.90
59007;DHT22;44792;52.760;6.726;2023-02-23T15:49:02;7.70;99.90
59007;DHT22;44792;52.760;6.726;2023-02-23T15:51:44;7.50;99.90
59007;DHT22;44792;52.760;6.726;2023-02-23T15:54:22;7.50;99.90
59007;DHT22;44792;52.760;6.726;2023-02-23T15:56:50;7.40;99.90
59007;DHT22;44792;52.760;6.726;2023-02-23T15:59:34;7.40;99.90
59007;DHT22;44792;52.760;6.726;2023-02-23T16:02:01;7.40;99.90
59007;DHT22;44792;52.760;6.726;2023-02-23T16:04:37;7.30;99.90
59007;DHT22;44792;52.760;6.726;2023-02-23T16:07:16;7.30;99.90
59007;DHT22;44792;52.760;6.726;2023-02-23T16:09:53;7.30;99.90
59007;DHT22;44792;52.760;6.726;2023-02-23T16:12:31;7.20;99.90
59007;DHT22;44792;52.760;6.726;2023-02-23T16:15:03;7.20;99.90
59007;DHT22;44792;52.760;6.726;2023-02-23T16:20:22;7.20;99.90
59007;DHT22;44792;52.760;6.726;2023-02-23T16:22:51;7.20;99.90
59007;DHT22;44792;52.760;6.726;2023-02-23T16:25:18;7.20;99.90
59007;DHT22;44792;52.760;6.726;2023-02-23T16:27:45;7.10;99.90
59007;DHT22;44792;52.760;6.726;2023-02-23T16:32:48;7.10;99.90
59007;DHT22;44792;52.760;6.726;2023-02-23T16:35:17;7.10;99.90
59007;DHT22;44792;52.760;6.726;2023-02-23T16:38:00;7.00;99.90
59007;DHT22;44792;52.760;6.726;2023-02-23T16:40:26;7.00;99.90
59007;DHT22;44792;52.760;6.726;2023-02-23T16:42:52;7.10;99.90
59007;DHT22;44792;52.760;6.726;2023-02-23T16:45:23;7.00;99.90
59007;DHT22;44792;52.760;6.726;2023-02-23T16:47:50;7.00;99.90
59007;DHT22;44792;52.760;6.726;2023-02-23T16:50:18;7.10;99.90
59007;DHT22;44792;52.760;6.726;2023-02-23T16:52:45;7.10;99.90
59007;DHT22;44792;52.760;6.726;2023-02-23T16:55:12;7.10;99.90
59007;DHT22;44792;52.760;6.726;2023-02-23T16:57:45;7.00;99.90
59007;DHT22;44792;52.760;6.726;2023-02-23T17:00:14;7.00;99.90
59007;DHT22;44792;52.760;6.726;2023-02-23T17:02:46;7.00;99.90
59007;DHT22;44792;52.760;6.726;2023-02-23T17:05:17;7.10;99.90
59007;DHT22;44792;52.760;6.726;2023-02-23T17:07:44;7.00;99.90
59007;DHT22;44792;52.760;6.726;2023-02-23T17:10:16;7.00;99.90
59007;DHT22;44792;52.760;6.726;2023-02-23T17:12:50;7.00;99.90
59007;DHT22;44792;52.760;6.726;2023-02-23T17:15:18;7.10;99.90
59007;DHT22;44792;52.760;6.726;2023-02-23T17:17:43;7.10;99.90
59007;DHT22;44792;52.760;6.726;2023-02-23T17:20:09;7.10;99.90
59007;DHT22;44792;52.760;6.726;2023-02-23T17:22:42;7.10;99.90
59007;DHT22;44792;52.760;6.726;2023-02-23T17:25:08;7.10;99.90
59007;DHT22;44792;52.760;6.726;2023-02-23T17:27:34;7.10;99.90
59007;DHT22;44792;52.760;6.726;2023-02-23T17:29:59;7.10;99.90
59007;DHT22;44792;52.760;6.726;2023-02-23T17:32:25;7.10;99.90
59007;DHT22;44792;52.760;6.726;2023-02-23T17:34:51;7.00;99.90
59007;DHT22;44792;52.760;6.726;2023-02-23T17:37:17;7.10;99.90
59007;DHT22;44792;52.760;6.726;2023-02-23T17:39:46;7.10;99.90
59007;DHT22;44792;52.760;6.726;2023-02-23T17:42:14;7.00;99.90
59007;DHT22;44792;52.760;6.726;2023-02-23T17:44:40;7.00;99.90
59007;DHT22;44792;52.760;6.726;2023-02-23T17:47:05;7.10;99.90
59007;DHT22;44792;52.760;6.726;2023-02-23T17:49:31;7.00;99.90
59007;DHT22;44792;52.760;6.726;2023-02-23T17:51:57;7.00;99.90
59007;DHT22;44792;52.760;6.726;2023-02-23T17:54:22;7.00;99.90
59007;DHT22;44792;52.760;6.726;2023-02-23T17:56:48;7.00;99.90
59007;DHT22;44792;52.760;6.726;2023-02-23T17:59:14;7.10;99.90
59007;DHT22;44792;52.760;6.726;2023-02-23T18:01:39;7.10;99.90
59007;DHT22;44792;52.760;6.726;2023-02-23T18:04:05;7.10;99.90
59007;DHT22;44792;52.760;6.726;2023-02-23T18:06:30;7.00;99.90
59007;DHT22;44792;52.760;6.726;2023-02-23T18:08:56;7.00;99.90
59007;DHT22;44792;52.760;6.726;2023-02-23T18:11:22;7.10;99.90
59007;DHT22;44792;52.760;6.726;2023-02-23T18:13:47;7.10;99.90
59007;DHT22;44792;52.760;6.726;2023-02-23T18:16:15;7.00;99.90
59007;DHT22;44792;52.760;6.726;2023-02-23T18:18:44;7.10;99.90